Pagrindinis puslapis
METAR-TAF:

METAR-TAF

Oro uostai :

Fukuokas, Vietnamas

platuma: 10-10-18N, ilguma: 103-59-28E, Aukštis: 11 m

Dabartinis oras

Ataskaita buvo paskelbta 29 minutes, ne 07:30 UTC
Vėjas 13 kt iš Rytų/Šiaurės Rytų, svyruoja nuo Šiaurės/Šiaurės Rytų ir Rytų
Temperatūra 33°C
Drėgmė 36%
Slėgis 1012 hPa
Matomumas 10 km arba daugiau
nėra debesų žemiau 1500 m ir nėra kamuolinių lietaus debesų

METAR: VVPQ 230730Z 06013KT 030V100 CAVOK 33/16 Q1012 NOSIG

Laikas: 14:59 (07:59 UTC)

Prognozė

Ataskaita buvo paskelbta 2 valandos ir 59 minutes, ne 05:00 UTC
Prognozė galioja nuo 23 metu 06 UTC su 24 metu 06 UTC
Vėjas 11 kt iš Šiaurės Rytų
Matomumas 10 km arba daugiau
Mažai debesys ne aukštis 1700 ft
Laikinai
nuo 23 metu 06 UTC su 23 metu 10 UTC
Vėjas 15 kt iš Rytų/Šiaurės Rytų su gūsio iki 28 kt

TAF: VVPQ 230500Z 2306/2406 05011KT 9999 FEW017 TEMPO 2306/2310 06015G28KT

Orai ataskaitas ir orų prognozės (METAR, TAF).

turimą stotys yra geltonos ir raudonos taškus žemėlapyje.

Perkelti pele per norėdami pamatyti stoties vardą.

Tada spustelėkite, norėdami matyti oro stebėjimo ir prognozės.

Norėdami pakeisti žemėlapį: spustelėkite ant žalios mygtukų su juodo kryžiaus žemyn,; žalią mygtuką su brūkšneliu, jei norite nutolinti; arba žalių rodyklių gretimoms žemėlapius.


METAR-TAF: